createdAt,value
2023-02-18T00:01:35.789Z,85.70
2023-02-18T00:04:02.713Z,85.80
2023-02-18T00:06:33.368Z,86.10
2023-02-18T00:09:02.496Z,86.30
2023-02-18T00:11:31.845Z,86.20
2023-02-18T00:14:01.655Z,86.40
2023-02-18T00:16:29.786Z,86.60
2023-02-18T00:19:00.529Z,86.70
2023-02-18T00:21:27.777Z,86.80
2023-02-18T00:23:55.540Z,86.80
2023-02-18T00:26:22.670Z,86.80
2023-02-18T00:28:51.383Z,87.00
2023-02-18T00:31:25.025Z,87.10
2023-02-18T00:33:52.616Z,87.00
2023-02-18T00:36:22.255Z,87.20
2023-02-18T00:38:52.889Z,87.60
2023-02-18T00:41:21.467Z,87.50
2023-02-18T00:43:48.854Z,87.50
2023-02-18T00:46:16.045Z,86.90
2023-02-18T00:48:42.936Z,87.10
2023-02-18T00:51:11.354Z,87.20
2023-02-18T00:53:39.199Z,87.20
2023-02-18T00:56:07.365Z,87.30
2023-02-18T00:58:36.119Z,87.10
2023-02-18T01:01:07.665Z,87.30
2023-02-18T01:03:36.169Z,87.10
2023-02-18T01:06:04.919Z,87.10
2023-02-18T01:08:33.805Z,87.00
2023-02-18T01:11:01.033Z,86.90
2023-02-18T01:13:28.831Z,87.10
2023-02-18T01:15:56.079Z,86.50
2023-02-18T01:18:25.182Z,86.50
2023-02-18T01:20:52.242Z,86.80
2023-02-18T01:23:19.648Z,86.60
2023-02-18T01:25:48.713Z,86.30
2023-02-18T01:28:16.490Z,86.40
2023-02-18T01:30:44.167Z,86.70
2023-02-18T01:33:11.724Z,86.50
2023-02-18T01:35:40.644Z,86.60
2023-02-18T01:38:08.130Z,86.80
2023-02-18T01:40:35.366Z,87.20
2023-02-18T01:43:02.390Z,87.30
2023-02-18T01:45:35.531Z,87.50
2023-02-18T01:48:15.669Z,87.80
2023-02-18T01:50:54.588Z,87.80
2023-02-18T01:53:33.637Z,88.00
2023-02-18T01:56:05.656Z,87.90
2023-02-18T01:58:33.487Z,87.90
2023-02-18T02:01:01.827Z,88.00
2023-02-18T02:03:28.826Z,88.00
2023-02-18T02:05:55.874Z,88.10
2023-02-18T02:08:22.892Z,87.90
2023-02-18T02:11:23.616Z,88.10
2023-02-18T02:14:08.526Z,88.20
2023-02-18T02:16:40.483Z,88.40
2023-02-18T02:19:46.926Z,88.60
2023-02-18T02:22:46.736Z,88.50
2023-02-18T02:25:59.570Z,88.90
2023-02-18T02:29:29.128Z,88.80
2023-02-18T02:32:25.006Z,89.20
2023-02-18T02:34:58.947Z,89.30
2023-02-18T02:37:53.242Z,90.10
2023-02-18T02:40:42.116Z,89.30
2023-02-18T02:43:41.739Z,89.60
2023-02-18T02:46:20.703Z,89.60
2023-02-18T02:49:09.301Z,89.60
2023-02-18T02:51:47.177Z,89.60
2023-02-18T02:54:20.223Z,89.40
2023-02-18T02:56:47.448Z,89.50
2023-02-18T02:59:23.170Z,89.60
2023-02-18T03:02:26.501Z,89.70
2023-02-18T03:05:21.732Z,89.90
2023-02-18T03:08:23.875Z,89.40
2023-02-18T03:11:12.487Z,89.40
2023-02-18T03:14:15.293Z,89.50
2023-02-18T03:16:49.613Z,89.50
2023-02-18T03:19:26.344Z,89.40
2023-02-18T03:22:05.757Z,89.40
2023-02-18T03:24:39.486Z,89.50
2023-02-18T03:27:21.824Z,89.40
2023-02-18T03:29:56.921Z,89.60
2023-02-18T03:32:25.814Z,89.50
2023-02-18T03:35:00.609Z,89.70
2023-02-18T03:37:27.797Z,89.80
2023-02-18T03:39:59.907Z,90.00
2023-02-18T03:42:28.859Z,90.10
2023-02-18T03:44:55.902Z,90.20
2023-02-18T03:47:24.799Z,90.20
2023-02-18T03:49:51.729Z,90.40
2023-02-18T03:52:18.692Z,90.40
2023-02-18T03:54:45.710Z,90.40
2023-02-18T03:57:12.694Z,90.50
2023-02-18T03:59:39.590Z,90.60
2023-02-18T04:02:06.506Z,90.60
2023-02-18T04:04:33.518Z,90.60
2023-02-18T04:07:00.451Z,90.70
2023-02-18T04:09:27.321Z,90.70
2023-02-18T04:11:54.232Z,90.80
2023-02-18T04:14:21.111Z,90.90
2023-02-18T04:16:48.038Z,90.90
2023-02-18T04:19:15.021Z,91.10
2023-02-18T04:21:41.911Z,91.20
2023-02-18T04:24:09.078Z,91.30
2023-02-18T04:26:36.080Z,91.40
2023-02-18T04:29:02.967Z,91.50
2023-02-18T04:31:29.966Z,91.60
2023-02-18T04:33:56.911Z,91.70
2023-02-18T04:36:24.035Z,91.80
2023-02-18T04:38:50.928Z,91.80
2023-02-18T04:41:17.831Z,91.90
2023-02-18T04:43:44.710Z,91.90
2023-02-18T04:46:11.727Z,92.00
2023-02-18T04:48:38.779Z,92.10
2023-02-18T04:51:05.911Z,92.20
2023-02-18T04:53:32.796Z,92.20
2023-02-18T04:55:59.919Z,92.20
2023-02-18T04:58:26.807Z,92.30
2023-02-18T05:00:54.055Z,92.30
2023-02-18T05:03:21.389Z,92.40
2023-02-18T05:05:48.342Z,92.50
2023-02-18T05:08:16.304Z,92.60
2023-02-18T05:10:43.242Z,92.70
2023-02-18T05:13:10.155Z,92.80
2023-02-18T05:15:37.214Z,92.80
2023-02-18T05:18:04.212Z,92.80
2023-02-18T05:20:31.357Z,92.90
2023-02-18T05:22:58.307Z,92.90
2023-02-18T05:25:25.348Z,92.90
2023-02-18T05:27:52.238Z,92.90
2023-02-18T05:30:19.321Z,92.90
2023-02-18T05:32:46.211Z,92.90
2023-02-18T05:35:14.006Z,93.00
2023-02-18T05:37:40.879Z,93.10
2023-02-18T05:40:08.316Z,93.10
2023-02-18T05:42:35.203Z,93.10
2023-02-18T05:45:02.096Z,93.20
2023-02-18T05:47:28.982Z,93.20
2023-02-18T05:49:56.123Z,93.20
2023-02-18T05:52:23.431Z,93.30
2023-02-18T05:54:50.343Z,93.30
2023-02-18T05:57:17.290Z,93.30
2023-02-18T05:59:44.199Z,93.30
2023-02-18T06:02:11.161Z,93.30
2023-02-18T06:04:38.127Z,93.30
2023-02-18T06:07:05.118Z,93.30
2023-02-18T06:09:32.034Z,93.30
2023-02-18T06:11:58.942Z,93.40
2023-02-18T06:14:25.866Z,93.40
2023-02-18T06:16:52.730Z,93.40
2023-02-18T06:19:19.603Z,93.50
2023-02-18T06:21:46.541Z,93.50
2023-02-18T06:24:13.419Z,93.50
2023-02-18T06:26:40.302Z,93.50
2023-02-18T06:29:07.222Z,93.60
2023-02-18T06:31:34.231Z,93.50
2023-02-18T06:34:01.197Z,93.60
2023-02-18T06:36:28.073Z,93.50
2023-02-18T06:38:57.405Z,93.60
2023-02-18T06:41:24.486Z,93.60
2023-02-18T06:43:51.652Z,93.60
2023-02-18T06:46:18.586Z,93.70
2023-02-18T06:48:45.525Z,93.60
2023-02-18T06:51:12.454Z,93.60
2023-02-18T06:53:39.366Z,93.60
2023-02-18T06:56:06.488Z,93.70
2023-02-18T06:58:33.610Z,93.70
2023-02-18T07:01:00.570Z,93.60
2023-02-18T07:03:27.855Z,93.70
2023-02-18T07:05:54.792Z,93.70
2023-02-18T07:08:21.832Z,93.60
2023-02-18T07:10:49.471Z,93.60
2023-02-18T07:13:16.434Z,93.60
2023-02-18T07:15:43.450Z,93.60
2023-02-18T07:18:10.371Z,93.60
2023-02-18T07:20:37.264Z,93.60
2023-02-18T07:23:04.267Z,93.50
2023-02-18T07:25:31.142Z,93.40
2023-02-18T07:27:58.045Z,93.40
2023-02-18T07:30:25.000Z,93.30
2023-02-18T07:32:51.916Z,93.20
2023-02-18T07:35:19.147Z,93.20
2023-02-18T07:37:48.484Z,93.10
2023-02-18T07:40:20.245Z,93.00
2023-02-18T07:42:47.750Z,92.80
2023-02-18T07:45:15.374Z,92.80
2023-02-18T07:47:42.579Z,92.70
2023-02-18T07:50:11.159Z,92.50
2023-02-18T07:52:38.094Z,92.40
2023-02-18T07:55:05.301Z,92.40
2023-02-18T07:57:32.268Z,92.30
2023-02-18T07:59:59.195Z,92.10
2023-02-18T08:02:26.238Z,92.00
2023-02-18T08:04:53.175Z,91.80
2023-02-18T08:07:22.035Z,91.80
2023-02-18T08:09:50.693Z,91.50
2023-02-18T08:12:18.107Z,91.40
2023-02-18T08:14:45.911Z,91.40
2023-02-18T08:17:12.798Z,91.30
2023-02-18T08:19:39.685Z,91.40
2023-02-18T08:22:06.630Z,91.40
2023-02-18T08:24:33.519Z,91.40
2023-02-18T08:27:01.717Z,91.30
2023-02-18T08:29:29.787Z,91.50
2023-02-18T08:31:58.186Z,91.40
2023-02-18T08:34:25.739Z,90.90
2023-02-18T08:36:52.620Z,90.80
2023-02-18T08:39:19.513Z,90.70
2023-02-18T08:41:46.385Z,90.60
2023-02-18T08:44:13.270Z,90.50
2023-02-18T08:46:40.213Z,90.60
2023-02-18T08:49:07.239Z,90.60
2023-02-18T08:51:34.527Z,90.70
2023-02-18T08:54:01.808Z,90.80
2023-02-18T08:56:28.771Z,90.70
2023-02-18T08:58:55.671Z,90.90
2023-02-18T09:01:22.612Z,90.80
2023-02-18T09:03:49.694Z,90.90
2023-02-18T09:06:16.706Z,90.80
2023-02-18T09:08:43.755Z,90.80
2023-02-18T09:11:11.654Z,90.90
2023-02-18T09:13:38.954Z,90.90
2023-02-18T09:16:15.389Z,90.80
2023-02-18T09:18:42.515Z,91.00
2023-02-18T09:21:11.804Z,90.90
2023-02-18T09:23:39.428Z,90.90
2023-02-18T09:26:09.932Z,90.90
2023-02-18T09:28:37.409Z,90.90
2023-02-18T09:31:10.688Z,90.70
2023-02-18T09:33:40.459Z,90.70
2023-02-18T09:36:08.352Z,90.80
2023-02-18T09:38:35.469Z,90.80
2023-02-18T09:41:09.645Z,90.60
2023-02-18T09:43:48.619Z,90.80
2023-02-18T09:46:30.060Z,90.80
2023-02-18T09:48:58.326Z,90.90
2023-02-18T09:51:25.219Z,91.00
2023-02-18T09:53:52.134Z,91.30
2023-02-18T09:56:35.837Z,91.10
2023-02-18T09:59:10.017Z,91.20
2023-02-18T10:01:39.961Z,91.30
2023-02-18T10:04:41.221Z,91.50
2023-02-18T10:07:21.804Z,91.70
2023-02-18T10:09:52.288Z,91.80
2023-02-18T10:12:23.413Z,91.90
2023-02-18T10:14:57.431Z,91.90
2023-02-18T10:17:28.519Z,92.00
2023-02-18T10:19:56.931Z,92.20
2023-02-18T10:22:26.178Z,92.40
2023-02-18T10:25:00.126Z,92.50
2023-02-18T10:27:31.556Z,92.50
2023-02-18T10:30:24.408Z,92.70
2023-02-18T10:33:30.782Z,92.70
2023-02-18T10:36:42.103Z,92.80
2023-02-18T10:39:24.313Z,92.80
2023-02-18T10:42:30.247Z,92.90
2023-02-18T10:45:30.931Z,92.90
2023-02-18T10:48:18.723Z,93.20
2023-02-18T10:50:46.446Z,93.40
2023-02-18T10:53:34.843Z,93.40
2023-02-18T10:56:02.128Z,93.50
2023-02-18T10:58:42.933Z,93.50
2023-02-18T11:01:20.645Z,93.50
2023-02-18T11:03:51.144Z,93.40
2023-02-18T11:06:40.009Z,93.40
2023-02-18T11:09:24.093Z,93.40
2023-02-18T11:11:57.070Z,93.60
2023-02-18T11:14:46.855Z,93.70
2023-02-18T11:17:21.178Z,93.80
2023-02-18T11:20:01.738Z,93.90
2023-02-18T11:22:39.750Z,94.20
2023-02-18T11:25:28.848Z,94.20
2023-02-18T11:27:58.566Z,94.40
2023-02-18T11:30:39.562Z,94.50
2023-02-18T11:33:23.548Z,94.60
2023-02-18T11:35:58.713Z,94.60
2023-02-18T11:38:36.287Z,94.70
2023-02-18T11:41:10.055Z,94.70
2023-02-18T11:43:42.015Z,94.80
2023-02-18T11:46:19.475Z,94.80
2023-02-18T11:48:47.133Z,94.60
2023-02-18T11:51:36.537Z,94.60
2023-02-18T11:54:30.134Z,94.70
2023-02-18T11:57:09.562Z,94.70
2023-02-18T11:59:40.723Z,94.60
2023-02-18T12:02:10.707Z,94.70
2023-02-18T12:04:44.194Z,94.70
2023-02-18T12:07:31.800Z,94.70
2023-02-18T12:10:05.220Z,94.40
2023-02-18T12:12:46.870Z,94.40
2023-02-18T12:15:20.595Z,94.40
2023-02-18T12:18:11.650Z,94.30
2023-02-18T12:21:12.708Z,94.30
2023-02-18T12:24:14.975Z,94.30
2023-02-18T12:26:54.594Z,94.40
2023-02-18T12:30:19.389Z,94.60
2023-02-18T12:32:57.968Z,94.80
2023-02-18T12:36:07.890Z,95.00
2023-02-18T12:39:06.214Z,95.00
2023-02-18T12:42:21.538Z,94.90
2023-02-18T12:45:10.073Z,94.80
2023-02-18T12:47:57.338Z,94.70
2023-02-18T12:50:51.157Z,94.70
2023-02-18T12:54:12.950Z,94.60
2023-02-18T12:57:05.491Z,94.50
2023-02-18T13:00:11.819Z,94.20
2023-02-18T13:02:56.452Z,94.10
2023-02-18T13:05:36.844Z,94.20
2023-02-18T13:08:30.048Z,94.40
2023-02-18T13:11:12.594Z,94.60
2023-02-18T13:14:00.946Z,94.60
2023-02-18T13:16:29.413Z,94.40
2023-02-18T13:19:33.628Z,94.70
2023-02-18T13:22:06.342Z,94.20
2023-02-18T13:24:43.873Z,94.00
2023-02-18T13:27:19.279Z,94.00
2023-02-18T13:30:14.154Z,93.90
2023-02-18T13:33:21.871Z,93.70
2023-02-18T13:35:58.911Z,93.80
2023-02-18T13:39:00.101Z,93.90
2023-02-18T13:41:27.836Z,94.00
2023-02-18T13:43:55.078Z,93.80
2023-02-18T13:46:24.197Z,93.80
2023-02-18T13:49:13.284Z,94.00
2023-02-18T13:51:47.716Z,94.00
2023-02-18T13:54:17.403Z,94.00
2023-02-18T13:56:51.140Z,93.80
2023-02-18T13:59:40.276Z,93.70
2023-02-18T14:02:25.766Z,94.00
2023-02-18T14:04:58.812Z,94.00
2023-02-18T14:07:40.397Z,93.80
2023-02-18T14:10:19.046Z,93.70
2023-02-18T14:12:58.124Z,93.90
2023-02-18T14:15:25.014Z,94.00
2023-02-18T14:18:13.463Z,93.80
2023-02-18T14:20:40.321Z,93.40
2023-02-18T14:23:19.319Z,93.50
2023-02-18T14:25:55.240Z,93.30
2023-02-18T14:28:34.101Z,93.10
2023-02-18T14:31:39.237Z,93.20
2023-02-18T14:34:23.808Z,93.40
2023-02-18T14:37:05.972Z,93.50
2023-02-18T14:39:48.045Z,93.40
2023-02-18T14:42:43.705Z,93.60
2023-02-18T14:45:31.036Z,93.80
2023-02-18T14:48:49.237Z,93.70
2023-02-18T14:51:20.210Z,93.80
2023-02-18T14:53:47.802Z,93.70
2023-02-18T14:56:18.821Z,93.70
2023-02-18T14:58:51.262Z,93.70
2023-02-18T15:01:31.713Z,93.60
2023-02-18T15:04:01.006Z,93.90
2023-02-18T15:06:38.383Z,93.90
2023-02-18T15:09:19.759Z,94.20
2023-02-18T15:11:50.555Z,94.20
2023-02-18T15:14:25.095Z,94.20
2023-02-18T15:16:53.174Z,94.20
2023-02-18T15:19:26.191Z,94.10
2023-02-18T15:21:56.275Z,94.10
2023-02-18T15:24:39.023Z,94.00
2023-02-18T15:27:15.032Z,94.10
2023-02-18T15:29:42.377Z,93.90
2023-02-18T15:32:22.644Z,93.90
2023-02-18T15:34:52.538Z,94.00
2023-02-18T15:37:19.565Z,94.00
2023-02-18T15:39:46.901Z,94.30
2023-02-18T15:42:35.746Z,94.40
2023-02-18T15:45:23.739Z,94.40
2023-02-18T15:47:56.844Z,94.60
2023-02-18T15:50:36.889Z,94.60
2023-02-18T15:53:14.281Z,94.60
2023-02-18T15:55:46.478Z,94.70
2023-02-18T15:58:32.651Z,94.70
2023-02-18T16:01:06.162Z,94.80
2023-02-18T16:03:46.580Z,94.80
2023-02-18T16:06:27.307Z,94.80
2023-02-18T16:09:02.864Z,94.70
2023-02-18T16:11:43.973Z,94.70
2023-02-18T16:14:33.693Z,94.80
2023-02-18T16:17:20.201Z,94.90
2023-02-18T16:20:05.705Z,94.80
2023-02-18T16:22:36.438Z,94.80
2023-02-18T16:25:21.665Z,94.80
2023-02-18T16:27:55.331Z,95.00
2023-02-18T16:30:32.697Z,94.90
2023-02-18T16:33:00.578Z,95.00
2023-02-18T16:35:32.718Z,94.90
2023-02-18T16:38:01.867Z,95.00
2023-02-18T16:40:33.866Z,95.00
2023-02-18T16:43:10.032Z,95.10
2023-02-18T16:45:49.159Z,95.00
2023-02-18T16:48:40.642Z,94.90
2023-02-18T16:51:34.703Z,94.90
2023-02-18T16:54:01.674Z,94.90
2023-02-18T16:56:33.151Z,94.70
2023-02-18T16:59:00.187Z,94.70
2023-02-18T17:01:31.878Z,94.60
2023-02-18T17:04:00.575Z,94.70
2023-02-18T17:06:28.553Z,94.60
2023-02-18T17:08:57.101Z,94.60
2023-02-18T17:11:29.416Z,94.60
2023-02-18T17:13:59.514Z,94.60
2023-02-18T17:16:27.882Z,94.70
2023-02-18T17:18:54.794Z,94.80
2023-02-18T17:21:25.068Z,94.80
2023-02-18T17:23:52.917Z,94.90
2023-02-18T17:26:27.741Z,94.90
2023-02-18T17:28:57.847Z,95.00
2023-02-18T17:31:28.656Z,95.00
2023-02-18T17:33:59.378Z,95.00
2023-02-18T17:36:26.646Z,95.10
2023-02-18T17:38:53.825Z,95.00
2023-02-18T17:41:20.791Z,95.10
2023-02-18T17:43:47.659Z,95.10
2023-02-18T17:46:17.466Z,95.10
2023-02-18T17:48:46.162Z,95.20
2023-02-18T17:51:29.493Z,95.40
2023-02-18T17:53:56.875Z,95.50
2023-02-18T17:56:23.798Z,95.60
2023-02-18T17:58:50.702Z,95.60
2023-02-18T18:01:20.833Z,95.70
2023-02-18T18:03:47.727Z,95.80
2023-02-18T18:06:19.540Z,95.90
2023-02-18T18:08:47.983Z,96.00
2023-02-18T18:11:20.761Z,96.00
2023-02-18T18:13:48.122Z,96.20
2023-02-18T18:16:17.618Z,96.20
2023-02-18T18:18:44.918Z,96.30
2023-02-18T18:21:30.329Z,96.20
2023-02-18T18:23:57.239Z,96.30
2023-02-18T18:26:24.874Z,96.30
2023-02-18T18:28:51.739Z,96.50
2023-02-18T18:31:20.258Z,96.50
2023-02-18T18:33:51.487Z,96.60
2023-02-18T18:36:20.050Z,96.70
2023-02-18T18:38:47.018Z,96.60
2023-02-18T18:41:17.696Z,96.70
2023-02-18T18:43:45.164Z,96.70
2023-02-18T18:46:12.341Z,96.60
2023-02-18T18:48:39.948Z,96.60
2023-02-18T18:51:07.082Z,96.60
2023-02-18T18:53:35.448Z,96.50
2023-02-18T18:56:08.233Z,96.50
2023-02-18T18:58:35.122Z,96.60
2023-02-18T19:01:05.126Z,96.50
2023-02-18T19:03:33.876Z,96.80
2023-02-18T19:06:00.815Z,96.80
2023-02-18T19:08:27.778Z,96.80
2023-02-18T19:10:57.295Z,96.90
2023-02-18T19:13:28.268Z,97.00
2023-02-18T19:16:18.380Z,97.00
2023-02-18T19:18:46.324Z,97.10
2023-02-18T19:21:13.289Z,97.10
2023-02-18T19:23:40.809Z,97.10
2023-02-18T19:26:08.444Z,97.10
2023-02-18T19:28:35.476Z,97.10
2023-02-18T19:31:02.654Z,97.10
2023-02-18T19:33:29.741Z,97.10
2023-02-18T19:35:56.653Z,97.10
2023-02-18T19:38:23.533Z,97.10
2023-02-18T19:40:50.477Z,97.10
2023-02-18T19:43:17.359Z,97.20
2023-02-18T19:45:46.995Z,97.30
2023-02-18T19:48:15.430Z,97.30
2023-02-18T19:50:43.691Z,97.30
2023-02-18T19:53:11.488Z,97.10
2023-02-18T19:55:38.889Z,97.20
2023-02-18T19:58:06.404Z,97.20
2023-02-18T20:00:33.392Z,97.20
2023-02-18T20:03:00.409Z,97.20
2023-02-18T20:05:27.677Z,97.30
2023-02-18T20:07:54.568Z,97.20
2023-02-18T20:10:22.040Z,97.20
2023-02-18T20:12:53.873Z,97.10
2023-02-18T20:15:21.482Z,97.10
2023-02-18T20:17:48.454Z,97.00
2023-02-18T20:20:15.424Z,97.10
2023-02-18T20:22:42.325Z,97.10
2023-02-18T20:25:09.269Z,97.10
2023-02-18T20:27:38.421Z,97.10
2023-02-18T20:30:09.339Z,97.20
2023-02-18T20:32:37.041Z,97.20
2023-02-18T20:35:05.691Z,97.20
2023-02-18T20:37:34.244Z,97.20
2023-02-18T20:40:01.207Z,97.20
2023-02-18T20:42:28.107Z,97.10
2023-02-18T20:44:54.990Z,97.20
2023-02-18T20:47:21.958Z,97.10
2023-02-18T20:49:48.859Z,97.10
2023-02-18T20:52:16.293Z,97.10
2023-02-18T20:54:43.230Z,97.10
2023-02-18T20:57:10.136Z,97.10
2023-02-18T20:59:37.026Z,97.10
2023-02-18T21:02:04.532Z,97.10
2023-02-18T21:04:31.463Z,97.10
2023-02-18T21:06:58.385Z,97.10
2023-02-18T21:09:25.350Z,97.10
2023-02-18T21:11:52.248Z,97.20
2023-02-18T21:14:19.155Z,97.20
2023-02-18T21:16:46.389Z,97.20
2023-02-18T21:19:16.877Z,97.30
2023-02-18T21:21:45.213Z,97.20
2023-02-18T21:24:12.176Z,97.30
2023-02-18T21:26:39.472Z,97.20
2023-02-18T21:29:08.247Z,97.30
2023-02-18T21:31:41.648Z,97.60
2023-02-18T21:34:12.728Z,97.30
2023-02-18T21:36:39.710Z,97.30
2023-02-18T21:39:09.685Z,97.40
2023-02-18T21:41:40.217Z,97.40
2023-02-18T21:44:08.228Z,97.40
2023-02-18T21:46:36.674Z,97.40
2023-02-18T21:49:04.717Z,97.50
2023-02-18T21:52:01.895Z,97.70
2023-02-18T21:54:39.281Z,97.80
2023-02-18T21:57:12.429Z,98.00
2023-02-18T21:59:40.085Z,98.10
2023-02-18T22:02:14.741Z,98.50
2023-02-18T22:04:41.678Z,98.70
2023-02-18T22:07:08.886Z,98.40
2023-02-18T22:09:36.607Z,98.40
2023-02-18T22:12:04.160Z,98.50
2023-02-18T22:14:31.038Z,98.50
2023-02-18T22:16:58.142Z,98.50
2023-02-18T22:19:25.342Z,98.60
2023-02-18T22:21:52.528Z,98.50
2023-02-18T22:24:19.509Z,98.60
2023-02-18T22:26:46.957Z,98.60
2023-02-18T22:29:16.166Z,98.60
2023-02-18T22:31:43.365Z,98.60
2023-02-18T22:34:11.214Z,98.50
2023-02-18T22:36:38.361Z,98.50
2023-02-18T22:39:06.066Z,98.50
2023-02-18T22:41:34.606Z,98.50
2023-02-18T22:44:04.755Z,98.50
2023-02-18T22:46:34.142Z,98.50
2023-02-18T22:49:02.459Z,98.50
2023-02-18T22:51:33.279Z,98.50
2023-02-18T22:54:01.939Z,98.50
2023-02-18T22:56:29.968Z,98.40
2023-02-18T22:58:58.619Z,98.40
2023-02-18T23:01:31.204Z,98.40
2023-02-18T23:04:06.837Z,98.30
2023-02-18T23:06:34.272Z,98.30
2023-02-18T23:09:01.246Z,98.30
2023-02-18T23:11:28.125Z,98.20
2023-02-18T23:14:14.855Z,98.10
2023-02-18T23:17:00.606Z,98.00
2023-02-18T23:19:30.106Z,98.00
2023-02-18T23:21:57.638Z,98.00
2023-02-18T23:24:25.151Z,97.90
2023-02-18T23:26:52.018Z,98.00
2023-02-18T23:29:19.161Z,97.90
2023-02-18T23:31:46.116Z,97.90
2023-02-18T23:34:15.494Z,97.80
2023-02-18T23:36:43.675Z,97.80
2023-02-18T23:39:13.369Z,97.80
2023-02-18T23:41:40.291Z,97.80
2023-02-18T23:44:12.317Z,97.70
2023-02-18T23:46:40.333Z,97.80
2023-02-18T23:49:07.392Z,97.80
2023-02-18T23:51:34.277Z,97.70
2023-02-18T23:54:03.648Z,97.80
2023-02-18T23:56:30.830Z,97.70
2023-02-18T23:59:00.760Z,97.70
